createdAt,value
2023-04-15T00:01:59.073Z,4.30
2023-04-15T00:04:27.613Z,4.30
2023-04-15T00:06:55.246Z,4.30
2023-04-15T00:09:22.843Z,4.30
2023-04-15T00:11:51.140Z,4.30
2023-04-15T00:14:18.689Z,4.30
2023-04-15T00:16:46.237Z,4.30
2023-04-15T00:19:13.744Z,4.30
2023-04-15T00:21:41.368Z,4.30
2023-04-15T00:24:09.027Z,4.30
2023-04-15T00:26:36.659Z,4.30
2023-04-15T00:29:04.304Z,4.30
2023-04-15T00:31:32.147Z,4.30
2023-04-15T00:33:59.773Z,4.30
2023-04-15T00:36:27.693Z,4.30
2023-04-15T00:38:55.137Z,4.30
2023-04-15T00:41:23.091Z,4.20
2023-04-15T00:43:50.512Z,4.30
2023-04-15T00:46:21.454Z,4.30
2023-04-15T00:48:49.182Z,4.20
2023-04-15T00:51:16.754Z,4.20
2023-04-15T00:53:44.667Z,4.20
2023-04-15T00:56:14.207Z,4.20
2023-04-15T00:58:42.425Z,4.20
2023-04-15T01:01:11.374Z,4.20
2023-04-15T01:03:39.081Z,4.20
2023-04-15T01:06:07.430Z,4.20
2023-04-15T01:08:35.487Z,4.20
2023-04-15T01:11:03.927Z,4.20
2023-04-15T01:13:33.856Z,4.20
2023-04-15T01:16:03.060Z,4.20
2023-04-15T01:18:31.549Z,4.20
2023-04-15T01:21:03.660Z,4.30
2023-04-15T01:23:32.644Z,4.30
2023-04-15T01:26:00.300Z,4.20
2023-04-15T01:28:28.413Z,4.20
2023-04-15T01:31:07.744Z,4.30
2023-04-15T01:33:38.662Z,4.30
2023-04-15T01:36:25.630Z,4.20
2023-04-15T01:38:55.368Z,4.20
2023-04-15T01:41:28.849Z,4.30
2023-04-15T01:43:57.628Z,4.20
2023-04-15T01:46:26.636Z,4.20
2023-04-15T01:48:55.939Z,4.20
2023-04-15T01:51:24.893Z,4.20
2023-04-15T01:53:53.889Z,4.20
2023-04-15T01:56:24.525Z,4.20
2023-04-15T01:58:53.381Z,4.20
2023-04-15T02:01:22.550Z,4.20
2023-04-15T02:03:51.437Z,4.20
2023-04-15T02:06:21.042Z,4.20
2023-04-15T02:08:50.315Z,4.20
2023-04-15T02:11:19.796Z,4.20
2023-04-15T02:13:48.552Z,4.20
2023-04-15T02:16:18.672Z,4.20
2023-04-15T02:18:47.903Z,4.20
2023-04-15T02:21:16.891Z,4.20
2023-04-15T02:23:47.027Z,4.20
2023-04-15T02:26:15.835Z,4.20
2023-04-15T02:28:44.611Z,4.20
2023-04-15T02:31:17.388Z,4.20
2023-04-15T02:33:46.668Z,4.20
2023-04-15T02:36:15.646Z,4.20
2023-04-15T02:38:44.489Z,4.20
2023-04-15T02:41:13.731Z,4.20
2023-04-15T02:43:42.584Z,4.20
2023-04-15T02:46:14.743Z,4.10
2023-04-15T02:48:43.784Z,4.10
2023-04-15T02:51:22.707Z,4.10
2023-04-15T02:53:51.722Z,4.10
2023-04-15T02:56:25.625Z,4.10
2023-04-15T02:58:56.210Z,4.10
2023-04-15T03:01:26.410Z,4.10
2023-04-15T03:03:55.433Z,4.10
2023-04-15T03:06:24.758Z,4.10
2023-04-15T03:08:53.604Z,4.10
2023-04-15T03:11:23.258Z,4.10
2023-04-15T03:13:52.640Z,4.00
2023-04-15T03:16:30.751Z,4.10
2023-04-15T03:19:00.669Z,4.10
2023-04-15T03:21:30.882Z,4.10
2023-04-15T03:23:59.897Z,4.10
2023-04-15T03:26:30.443Z,4.10
2023-04-15T03:29:03.395Z,4.10
2023-04-15T03:31:32.407Z,4.00
2023-04-15T03:34:01.243Z,4.10
2023-04-15T03:36:34.800Z,4.10
2023-04-15T03:39:04.273Z,4.00
2023-04-15T03:41:33.508Z,4.10
2023-04-15T03:44:02.250Z,4.10
2023-04-15T03:46:31.207Z,4.10
2023-04-15T03:49:00.898Z,4.10
2023-04-15T03:51:29.886Z,4.10
2023-04-15T03:53:58.810Z,4.10
2023-04-15T03:56:28.767Z,4.10
2023-04-15T03:58:58.794Z,4.10
2023-04-15T04:01:27.870Z,4.10
2023-04-15T04:03:56.737Z,4.10
2023-04-15T04:06:26.341Z,4.10
2023-04-15T04:08:55.004Z,4.10
2023-04-15T04:11:23.733Z,4.10
2023-04-15T04:13:52.425Z,4.10
2023-04-15T04:16:21.359Z,4.20
2023-04-15T04:18:50.343Z,4.20
2023-04-15T04:21:19.931Z,4.20
2023-04-15T04:23:48.730Z,4.20
2023-04-15T04:26:17.503Z,4.30
2023-04-15T04:28:46.494Z,4.20
2023-04-15T04:31:15.354Z,4.20
2023-04-15T04:33:44.176Z,4.20
2023-04-15T04:36:12.906Z,4.30
2023-04-15T04:38:41.598Z,4.20
2023-04-15T04:41:10.608Z,4.30
2023-04-15T04:43:39.364Z,4.30
2023-04-15T04:46:08.097Z,4.30
2023-04-15T04:48:36.878Z,4.30
2023-04-15T04:51:05.703Z,4.30
2023-04-15T04:53:34.651Z,4.30
2023-04-15T04:56:03.895Z,4.30
2023-04-15T04:58:32.746Z,4.30
2023-04-15T05:01:01.612Z,4.30
2023-04-15T05:03:30.666Z,4.30
2023-04-15T05:05:59.507Z,4.30
2023-04-15T05:08:28.324Z,4.30
2023-04-15T05:10:57.060Z,4.30
2023-04-15T05:13:26.211Z,4.30
2023-04-15T05:15:54.996Z,4.30
2023-04-15T05:18:23.995Z,4.40
2023-04-15T05:20:53.048Z,4.40
2023-04-15T05:23:21.924Z,4.30
2023-04-15T05:25:50.733Z,4.40
2023-04-15T05:28:19.588Z,4.40
2023-04-15T05:30:48.326Z,4.40
2023-04-15T05:33:17.628Z,4.40
2023-04-15T05:35:46.811Z,4.40
2023-04-15T05:38:15.601Z,4.40
2023-04-15T05:40:44.454Z,4.40
2023-04-15T05:43:13.245Z,4.40
2023-04-15T05:45:42.010Z,4.40
2023-04-15T05:48:10.940Z,4.40
2023-04-15T05:50:42.226Z,4.40
2023-04-15T05:53:11.701Z,4.40
2023-04-15T05:55:40.408Z,4.40
2023-04-15T05:58:09.163Z,4.40
2023-04-15T06:00:37.911Z,4.40
2023-04-15T06:03:07.837Z,4.40
2023-04-15T06:05:36.726Z,4.50
2023-04-15T06:08:05.743Z,4.50
2023-04-15T06:10:36.702Z,4.50
2023-04-15T06:13:06.049Z,4.50
2023-04-15T06:15:35.931Z,4.60
2023-04-15T06:18:05.185Z,4.50
2023-04-15T06:20:34.009Z,4.60
2023-04-15T06:23:02.914Z,4.60
2023-04-15T06:25:31.668Z,4.60
2023-04-15T06:28:00.544Z,4.60
2023-04-15T06:30:29.313Z,4.60
2023-04-15T06:32:58.143Z,4.70
2023-04-15T06:35:27.559Z,4.70
2023-04-15T06:37:56.733Z,4.70
2023-04-15T06:40:25.954Z,4.70
2023-04-15T06:42:55.635Z,4.70
2023-04-15T06:45:24.627Z,4.80
2023-04-15T06:47:53.563Z,4.80
2023-04-15T06:50:22.363Z,4.90
2023-04-15T06:52:51.254Z,4.90
2023-04-15T06:55:20.169Z,5.00
2023-04-15T06:57:49.005Z,5.00
2023-04-15T07:00:18.409Z,5.00
2023-04-15T07:02:47.302Z,5.00
2023-04-15T07:05:16.392Z,5.00
2023-04-15T07:07:45.397Z,5.00
2023-04-15T07:10:15.862Z,5.10
2023-04-15T07:12:44.583Z,5.00
2023-04-15T07:15:13.411Z,5.10
2023-04-15T07:17:43.324Z,5.00
2023-04-15T07:20:13.013Z,5.10
2023-04-15T07:22:41.882Z,5.20
2023-04-15T07:25:10.754Z,5.20
2023-04-15T07:27:39.513Z,5.20
2023-04-15T07:30:09.303Z,5.10
2023-04-15T07:32:38.232Z,5.20
2023-04-15T07:35:07.834Z,5.30
2023-04-15T07:37:36.626Z,5.30
2023-04-15T07:40:07.268Z,5.40
2023-04-15T07:42:37.123Z,5.40
2023-04-15T07:45:07.129Z,5.60
2023-04-15T07:47:36.301Z,5.60
2023-04-15T07:50:05.497Z,5.70
2023-04-15T07:52:39.127Z,5.60
2023-04-15T07:55:09.757Z,5.70
2023-04-15T07:57:38.555Z,5.90
2023-04-15T08:00:08.173Z,6.00
2023-04-15T08:02:43.510Z,6.10
2023-04-15T08:05:13.201Z,6.00
2023-04-15T08:07:42.226Z,6.10
2023-04-15T08:10:11.996Z,6.10
2023-04-15T08:12:41.494Z,6.10
2023-04-15T08:15:10.681Z,6.10
2023-04-15T08:17:39.570Z,6.00
2023-04-15T08:20:13.392Z,5.90
2023-04-15T08:22:42.532Z,5.90
2023-04-15T08:25:11.292Z,5.90
2023-04-15T08:27:40.267Z,6.10
2023-04-15T08:30:09.831Z,6.20
2023-04-15T08:32:38.880Z,6.20
2023-04-15T08:35:08.283Z,6.30
2023-04-15T08:37:37.569Z,6.40
2023-04-15T08:40:08.530Z,6.60
2023-04-15T08:42:44.998Z,6.70
2023-04-15T08:45:14.541Z,6.90
2023-04-15T08:47:44.709Z,7.00
2023-04-15T08:50:16.059Z,7.00
2023-04-15T08:52:44.904Z,7.10
2023-04-15T08:55:14.316Z,7.10
2023-04-15T08:57:43.211Z,7.10
2023-04-15T09:00:14.025Z,7.00
2023-04-15T09:02:43.845Z,6.90
2023-04-15T09:05:12.938Z,6.90
2023-04-15T09:07:41.926Z,6.90
2023-04-15T09:10:11.120Z,6.80
2023-04-15T09:12:40.028Z,6.70
2023-04-15T09:15:12.510Z,6.70
2023-04-15T09:17:45.654Z,6.80
2023-04-15T09:20:16.266Z,6.80
2023-04-15T09:22:47.578Z,6.80
2023-04-15T09:25:22.423Z,6.90
2023-04-15T09:27:59.785Z,6.90
2023-04-15T09:30:29.537Z,6.80
2023-04-15T09:33:00.830Z,6.70
2023-04-15T09:35:29.733Z,6.70
2023-04-15T09:38:10.178Z,6.60
2023-04-15T09:40:42.216Z,6.60
2023-04-15T09:43:14.318Z,6.60
2023-04-15T09:45:55.440Z,6.70
2023-04-15T09:48:27.297Z,6.70
2023-04-15T09:51:01.808Z,6.60
2023-04-15T09:53:34.569Z,6.60
2023-04-15T09:56:04.084Z,6.70
2023-04-15T09:58:35.331Z,6.70
2023-04-15T10:01:06.180Z,6.80
2023-04-15T10:03:38.676Z,6.80
2023-04-15T10:06:07.959Z,6.80
2023-04-15T10:08:36.785Z,6.90
2023-04-15T10:11:06.995Z,7.00
2023-04-15T10:13:37.450Z,6.90
2023-04-15T10:16:16.176Z,6.90
2023-04-15T10:18:47.256Z,7.00
2023-04-15T10:21:18.571Z,7.00
2023-04-15T10:23:47.698Z,7.00
2023-04-15T10:26:20.186Z,7.00
2023-04-15T10:28:49.492Z,7.10
2023-04-15T10:31:20.011Z,7.20
2023-04-15T10:33:49.588Z,7.10
2023-04-15T10:36:19.471Z,7.10
2023-04-15T10:38:48.276Z,7.20
2023-04-15T10:41:20.470Z,7.30
2023-04-15T10:44:16.746Z,7.20
2023-04-15T10:46:45.988Z,7.20
2023-04-15T10:49:17.229Z,7.30
2023-04-15T10:51:51.334Z,7.30
2023-04-15T10:54:26.122Z,7.30
2023-04-15T10:57:03.478Z,7.30
2023-04-15T10:59:33.113Z,7.20
2023-04-15T11:02:04.234Z,7.30
2023-04-15T11:04:58.855Z,7.30
2023-04-15T11:07:44.666Z,7.40
2023-04-15T11:10:26.009Z,7.40
2023-04-15T11:12:58.592Z,7.40
2023-04-15T11:15:37.842Z,7.50
2023-04-15T11:18:12.762Z,7.40
2023-04-15T11:20:45.021Z,7.40
2023-04-15T11:23:16.167Z,7.40
2023-04-15T11:25:46.178Z,7.40
2023-04-15T11:28:15.068Z,7.40
2023-04-15T11:30:44.603Z,7.40
2023-04-15T11:33:14.154Z,7.40
2023-04-15T11:35:43.118Z,7.40
2023-04-15T11:38:13.967Z,7.50
2023-04-15T11:40:46.817Z,7.60
2023-04-15T11:43:20.733Z,7.60
2023-04-15T11:45:53.737Z,7.70
2023-04-15T11:48:25.025Z,7.70
2023-04-15T11:50:59.440Z,7.80
2023-04-15T11:53:48.755Z,7.80
2023-04-15T11:56:25.076Z,7.70
2023-04-15T11:58:54.069Z,7.80
2023-04-15T12:01:21.627Z,7.80
2023-04-15T12:03:50.411Z,7.80
2023-04-15T12:06:20.279Z,7.80
2023-04-15T12:09:12.406Z,7.90
2023-04-15T12:11:43.006Z,7.90
2023-04-15T12:14:13.699Z,7.90
2023-04-15T12:16:54.156Z,7.80
2023-04-15T12:19:35.892Z,7.80
2023-04-15T12:22:04.406Z,7.80
2023-04-15T12:24:33.671Z,7.80
2023-04-15T12:27:06.103Z,7.70
2023-04-15T12:29:36.012Z,7.70
2023-04-15T12:32:10.435Z,7.70
2023-04-15T12:34:40.551Z,7.70
2023-04-15T12:37:10.060Z,7.60
2023-04-15T12:39:39.624Z,7.50
2023-04-15T12:42:08.334Z,7.50
2023-04-15T12:44:37.097Z,7.40
2023-04-15T12:47:04.789Z,7.40
2023-04-15T12:49:33.530Z,7.30
2023-04-15T12:52:02.751Z,7.30
2023-04-15T12:54:31.345Z,7.20
2023-04-15T12:56:59.550Z,7.20
2023-04-15T12:59:27.243Z,7.20
2023-04-15T13:01:55.004Z,7.20
2023-04-15T13:04:22.940Z,7.20
2023-04-15T13:06:50.816Z,7.20
2023-04-15T13:09:18.347Z,7.20
2023-04-15T13:11:46.323Z,7.10
2023-04-15T13:14:13.777Z,7.10
2023-04-15T13:16:41.530Z,7.10
2023-04-15T13:19:09.099Z,7.10
2023-04-15T13:21:36.694Z,7.10
2023-04-15T13:24:04.942Z,7.00
2023-04-15T13:26:32.868Z,7.10
2023-04-15T13:29:01.267Z,7.00
2023-04-15T13:31:28.952Z,7.00
2023-04-15T13:33:57.637Z,7.00
2023-04-15T13:36:26.396Z,7.00
2023-04-15T13:38:53.971Z,7.00
2023-04-15T13:41:21.482Z,7.00
2023-04-15T13:43:48.940Z,7.00
2023-04-15T13:46:16.753Z,7.00
2023-04-15T13:48:44.381Z,7.00
2023-04-15T13:51:11.929Z,7.00
2023-04-15T13:53:39.883Z,7.10
2023-04-15T13:56:08.738Z,7.20
2023-04-15T13:58:37.357Z,7.20
2023-04-15T14:01:06.826Z,7.10
2023-04-15T14:03:36.605Z,7.20
2023-04-15T14:06:05.899Z,7.20
2023-04-15T14:08:34.008Z,7.20
2023-04-15T14:11:01.497Z,7.20
2023-04-15T14:13:29.075Z,7.20
2023-04-15T14:15:57.301Z,7.20
2023-04-15T14:18:24.847Z,7.20
2023-04-15T14:20:52.503Z,7.20
2023-04-15T14:23:20.353Z,7.10
2023-04-15T14:25:48.506Z,7.10
2023-04-15T14:28:16.453Z,7.20
2023-04-15T14:30:44.177Z,7.10
2023-04-15T14:33:12.526Z,7.00
2023-04-15T14:35:40.106Z,7.10
2023-04-15T14:38:10.770Z,7.10
2023-04-15T14:40:38.826Z,7.00
2023-04-15T14:43:06.403Z,7.00
2023-04-15T14:45:33.999Z,6.90
2023-04-15T14:48:01.677Z,6.90
2023-04-15T14:50:29.331Z,6.90
2023-04-15T14:52:56.803Z,6.90
2023-04-15T14:55:24.387Z,6.90
2023-04-15T14:57:51.841Z,6.80
2023-04-15T15:00:19.543Z,6.80
2023-04-15T15:02:47.587Z,6.80
2023-04-15T15:05:16.086Z,6.80
2023-04-15T15:07:43.743Z,6.80
2023-04-15T15:10:11.425Z,6.70
2023-04-15T15:12:38.955Z,6.70
2023-04-15T15:15:15.399Z,6.60
2023-04-15T15:17:43.718Z,6.50
2023-04-15T15:20:11.448Z,6.40
2023-04-15T15:22:38.925Z,6.30
2023-04-15T15:25:06.611Z,6.20
2023-04-15T15:27:34.756Z,6.00
2023-04-15T15:30:05.182Z,5.90
2023-04-15T15:32:32.766Z,5.80
2023-04-15T15:35:00.399Z,5.80
2023-04-15T15:37:31.475Z,5.90
2023-04-15T15:39:59.215Z,5.90
2023-04-15T15:42:26.981Z,5.90
2023-04-15T15:44:54.680Z,5.90
2023-04-15T15:47:22.894Z,5.90
2023-04-15T15:49:50.518Z,5.90
2023-04-15T15:52:18.080Z,5.90
2023-04-15T15:54:45.589Z,5.90
2023-04-15T15:57:13.092Z,5.90
2023-04-15T15:59:43.558Z,5.90
2023-04-15T16:02:12.217Z,5.90
2023-04-15T16:04:40.519Z,5.90
2023-04-15T16:07:07.987Z,5.90
2023-04-15T16:09:35.601Z,6.00
2023-04-15T16:12:04.015Z,5.90
2023-04-15T16:14:31.595Z,5.90
2023-04-15T16:16:58.987Z,5.90
2023-04-15T16:19:26.533Z,5.90
2023-04-15T16:21:54.448Z,5.90
2023-04-15T16:24:22.140Z,5.80
2023-04-15T16:26:49.636Z,5.80
2023-04-15T16:29:17.145Z,5.80
2023-04-15T16:31:44.698Z,5.80
2023-04-15T16:34:12.204Z,5.80
2023-04-15T16:36:40.691Z,5.80
2023-04-15T16:39:08.129Z,5.80
2023-04-15T16:41:35.776Z,5.80
2023-04-15T16:44:04.481Z,5.70
2023-04-15T16:46:32.478Z,5.70
2023-04-15T16:49:00.033Z,5.60
2023-04-15T16:51:30.401Z,5.60
2023-04-15T16:53:58.015Z,5.50
2023-04-15T16:56:25.582Z,5.50
2023-04-15T16:58:53.430Z,5.50
2023-04-15T17:01:21.807Z,5.50
2023-04-15T17:03:49.714Z,5.40
2023-04-15T17:06:17.789Z,5.40
2023-04-15T17:08:45.394Z,5.40
2023-04-15T17:11:15.078Z,5.30
2023-04-15T17:13:42.611Z,5.30
2023-04-15T17:16:10.407Z,5.40
2023-04-15T17:18:43.046Z,5.30
2023-04-15T17:21:18.037Z,5.30
2023-04-15T17:23:50.158Z,5.30
2023-04-15T17:26:19.446Z,5.30
2023-04-15T17:28:47.926Z,5.30
2023-04-15T17:31:21.275Z,5.30
2023-04-15T17:34:10.314Z,5.30
2023-04-15T17:36:59.127Z,5.30
2023-04-15T17:39:46.640Z,5.30
2023-04-15T17:42:33.990Z,5.20
2023-04-15T17:45:21.390Z,5.20
2023-04-15T17:48:08.809Z,5.20
2023-04-15T17:50:56.256Z,5.10
2023-04-15T17:53:43.631Z,5.10
2023-04-15T17:56:31.262Z,5.10
2023-04-15T17:59:18.744Z,5.00
2023-04-15T18:02:06.253Z,5.00
2023-04-15T18:04:53.755Z,5.00
2023-04-15T18:07:41.532Z,5.00
2023-04-15T18:10:29.035Z,4.90
2023-04-15T18:13:16.494Z,4.90
2023-04-15T18:16:05.128Z,4.90
2023-04-15T18:18:52.774Z,4.90
2023-04-15T18:21:20.295Z,4.90
2023-04-15T18:23:47.849Z,4.90
2023-04-15T18:26:15.657Z,4.80
2023-04-15T18:28:43.222Z,4.80
2023-04-15T18:31:10.861Z,4.80
2023-04-15T18:33:39.319Z,4.80
2023-04-15T18:36:06.895Z,4.80
2023-04-15T18:38:34.339Z,4.80
2023-04-15T18:41:01.865Z,4.80
2023-04-15T18:43:29.502Z,4.80
2023-04-15T18:45:57.111Z,4.70
2023-04-15T18:48:26.361Z,4.70
2023-04-15T18:50:53.925Z,4.70
2023-04-15T18:53:21.561Z,4.70
2023-04-15T18:55:49.131Z,4.70
2023-04-15T18:58:17.375Z,4.70
2023-04-15T19:00:44.880Z,4.70
2023-04-15T19:03:12.556Z,4.70
2023-04-15T19:05:40.307Z,4.70
2023-04-15T19:08:07.841Z,4.70
2023-04-15T19:10:35.613Z,4.70
2023-04-15T19:13:04.509Z,4.70
2023-04-15T19:15:33.772Z,4.70
2023-04-15T19:18:01.375Z,4.60
2023-04-15T19:20:28.783Z,4.60
2023-04-15T19:22:56.391Z,4.60
2023-04-15T19:25:23.849Z,4.60
2023-04-15T19:27:51.276Z,4.60
2023-04-15T19:30:18.909Z,4.60
2023-04-15T19:32:46.507Z,4.60
2023-04-15T19:35:14.163Z,4.60
2023-04-15T19:37:41.713Z,4.60
2023-04-15T19:40:09.853Z,4.60
2023-04-15T19:42:37.324Z,4.60
2023-04-15T19:45:05.275Z,4.60
2023-04-15T19:47:34.744Z,4.60
2023-04-15T19:50:02.676Z,4.60
2023-04-15T19:52:30.301Z,4.60
2023-04-15T19:54:57.874Z,4.60
2023-04-15T19:57:25.473Z,4.60
2023-04-15T19:59:53.041Z,4.60
2023-04-15T20:02:20.638Z,4.60
2023-04-15T20:04:48.606Z,4.60
2023-04-15T20:07:16.719Z,4.60
2023-04-15T20:09:45.422Z,4.60
2023-04-15T20:12:51.627Z,4.60
2023-04-15T20:15:00.447Z,4.60
2023-04-15T20:17:32.041Z,4.60
2023-04-15T20:19:59.498Z,4.60
2023-04-15T20:22:26.906Z,4.60
2023-04-15T20:24:54.445Z,4.60
2023-04-15T20:27:21.956Z,4.60
2023-04-15T20:29:50.379Z,4.60
2023-04-15T20:32:18.518Z,4.60
2023-04-15T20:34:46.309Z,4.60
2023-04-15T20:37:13.799Z,4.60
2023-04-15T20:39:42.024Z,4.60
2023-04-15T20:42:10.350Z,4.60
2023-04-15T20:44:41.259Z,4.60
2023-04-15T20:47:08.910Z,4.50
2023-04-15T20:49:37.583Z,4.60
2023-04-15T20:52:06.660Z,4.50
2023-04-15T20:54:34.379Z,4.60
2023-04-15T20:57:01.991Z,4.60
2023-04-15T20:59:29.948Z,4.50
2023-04-15T21:01:58.113Z,4.50
2023-04-15T21:04:25.787Z,4.60
2023-04-15T21:06:53.302Z,4.50
2023-04-15T21:09:20.848Z,4.50
2023-04-15T21:14:19.674Z,4.50
2023-04-15T21:16:47.235Z,4.50
2023-04-15T21:19:14.832Z,4.50
2023-04-15T21:21:42.378Z,4.50
2023-04-15T21:24:09.861Z,4.50
2023-04-15T21:26:37.266Z,4.60
2023-04-15T21:29:04.951Z,4.60
2023-04-15T21:31:33.080Z,4.50
2023-04-15T21:34:00.805Z,4.60
2023-04-15T21:36:28.322Z,4.60
2023-04-15T21:38:55.834Z,4.60
2023-04-15T21:41:23.323Z,4.60
2023-04-15T21:43:50.874Z,4.60
2023-04-15T21:46:23.204Z,4.50
2023-04-15T21:48:55.278Z,4.60
2023-04-15T21:51:22.860Z,4.60
2023-04-15T21:53:50.396Z,4.60
2023-04-15T21:56:17.895Z,4.60
2023-04-15T21:58:45.379Z,4.60
2023-04-15T22:01:12.918Z,4.60
2023-04-15T22:03:40.549Z,4.60
2023-04-15T22:06:08.278Z,4.60
2023-04-15T22:08:48.298Z,4.60
2023-04-15T22:11:26.996Z,4.60
2023-04-15T22:13:55.525Z,4.60
2023-04-15T22:16:24.441Z,4.70
2023-04-15T22:18:52.238Z,4.70
2023-04-15T22:21:19.766Z,4.60
2023-04-15T22:23:48.745Z,4.70
2023-04-15T22:26:16.283Z,4.70
2023-04-15T22:28:43.850Z,4.70
2023-04-15T22:31:11.426Z,4.70
2023-04-15T22:33:39.205Z,4.70
2023-04-15T22:36:06.837Z,4.70
2023-04-15T22:38:34.319Z,4.70
2023-04-15T22:41:01.845Z,4.70
2023-04-15T22:43:29.349Z,4.60
2023-04-15T22:45:57.068Z,4.70
2023-04-15T22:48:24.572Z,4.70
2023-04-15T22:50:52.140Z,4.70
2023-04-15T22:53:20.067Z,4.70
2023-04-15T22:55:48.396Z,4.60
2023-04-15T22:58:17.062Z,4.60
2023-04-15T23:00:44.822Z,4.60
2023-04-15T23:03:12.459Z,4.60
2023-04-15T23:05:41.145Z,4.60
2023-04-15T23:08:08.910Z,4.60
2023-04-15T23:10:36.424Z,4.60
2023-04-15T23:13:03.922Z,4.50
2023-04-15T23:15:32.980Z,4.50
2023-04-15T23:18:02.097Z,4.50
2023-04-15T23:20:29.685Z,4.50
2023-04-15T23:22:57.163Z,4.50
2023-04-15T23:25:24.714Z,4.50
2023-04-15T23:27:52.201Z,4.40
2023-04-15T23:30:19.793Z,4.40
2023-04-15T23:32:47.312Z,4.40
2023-04-15T23:35:14.805Z,4.40
2023-04-15T23:37:42.225Z,4.40
2023-04-15T23:40:10.371Z,4.30
2023-04-15T23:42:37.850Z,4.30
2023-04-15T23:45:05.747Z,4.30
2023-04-15T23:47:33.370Z,4.30
2023-04-15T23:50:00.845Z,4.30
2023-04-15T23:52:28.356Z,4.30
2023-04-15T23:54:55.803Z,4.30
2023-04-15T23:57:24.348Z,4.30
2023-04-15T23:59:51.816Z,4.30
